Time;durP1;ratioP1;P1;durP2;ratioP2;P2;SDS_P1;SDS_P2;PMS_P1;PMS_P2;Temp;Humidity;BMP_temperature;BMP_pressure;BME280_temperature;BME280_humidity;BME280_pressure;Samples;Min_cycle;Max_cycle;Signal;HPM_P1;HPM_P2
2021/10/01 00:02:15;;;;;;;8.02;1.48;;;13.50;89.20;;;;;;5033865;28;20021;-83
2021/10/01 00:04:40;;;;;;;3.70;1.30;;;13.40;88.50;;;;;;5031145;28;20044;-84
2021/10/01 00:07:06;;;;;;;4.90;1.63;;;13.40;88.50;;;;;;5053661;28;20398;-83
2021/10/01 00:09:34;;;;;;;5.35;1.52;;;13.40;88.40;;;;;;5035750;28;20025;-84
2021/10/01 00:12:00;;;;;;;6.80;1.48;;;13.40;88.90;;;;;;5002428;28;20080;-84
2021/10/01 00:14:26;;;;;;;4.60;1.40;;;13.40;88.70;;;;;;5020080;28;20028;-84
2021/10/01 00:16:56;;;;;;;3.30;0.95;;;13.40;89.00;;;;;;5022623;28;20059;-84
2021/10/01 00:19:23;;;;;;;3.85;1.30;;;13.30;88.90;;;;;;5032943;28;20022;-84
2021/10/01 00:21:49;;;;;;;4.93;1.60;;;13.30;89.50;;;;;;5095087;23;20156;-85
2021/10/01 00:24:15;;;;;;;6.72;1.23;;;13.30;89.20;;;;;;5033028;28;20078;-84
2021/10/01 00:26:42;;;;;;;8.50;2.22;;;13.30;89.80;;;;;;5031581;28;20076;-84
2021/10/01 00:29:09;;;;;;;6.05;1.40;;;13.30;89.50;;;;;;5015174;28;20381;-88
2021/10/01 00:31:35;;;;;;;4.03;1.33;;;13.30;89.00;;;;;;5030130;28;20155;-87
2021/10/01 00:34:01;;;;;;;4.50;0.88;;;13.40;89.50;;;;;;5032163;28;20056;-85
2021/10/01 00:36:29;;;;;;;5.72;1.10;;;13.40;89.00;;;;;;5032425;28;20022;-85
2021/10/01 00:38:56;;;;;;;8.38;1.63;;;13.40;89.20;;;;;;5031879;28;20025;-86
2021/10/01 00:41:21;;;;;;;7.68;1.20;;;13.40;89.30;;;;;;5012716;28;20041;-87
2021/10/01 00:43:47;;;;;;;5.65;1.40;;;13.40;89.20;;;;;;5028710;28;20030;-88
2021/10/01 00:46:13;;;;;;;4.45;1.02;;;13.40;88.70;;;;;;5032007;28;20478;-87
2021/10/01 00:48:38;;;;;;;4.60;1.20;;;13.40;88.80;;;;;;5029096;28;20021;-87
2021/10/01 00:51:06;;;;;;;6.00;1.90;;;13.40;88.80;;;;;;5004801;28;20025;-86
2021/10/01 00:53:33;;;;;;;4.25;1.20;;;13.40;88.70;;;;;;4981753;28;20390;-86
2021/10/01 00:55:59;;;;;;;3.67;1.20;;;13.40;88.70;;;;;;5016164;28;20037;-86
2021/10/01 00:58:25;;;;;;;6.65;1.52;;;13.40;88.80;;;;;;5012819;28;20120;-86
2021/10/01 01:01:11;;;;;;;5.35;1.40;;;13.40;87.70;;;;;;5021306;28;20021;-87
2021/10/01 01:03:48;;;;;;;4.85;0.98;;;13.40;88.20;;;;;;5010511;28;20092;-86
2021/10/01 01:06:23;;;;;;;6.97;1.30;;;13.40;88.10;;;;;;5003103;28;20029;-86
2021/10/01 01:09:26;;;;;;;5.80;1.45;;;13.40;88.70;;;;;;5015369;28;20432;-87
2021/10/01 01:12:08;;;;;;;8.45;1.42;;;13.40;88.60;;;;;;5015484;28;20026;-93
2021/10/01 01:15:04;;;;;;;5.25;1.40;;;13.40;88.60;;;;;;5002094;28;20124;-86
2021/10/01 01:17:40;;;;;;;4.78;1.45;;;13.30;88.40;;;;;;5030353;28;20033;-86
2021/10/01 01:20:18;;;;;;;5.22;1.17;;;13.30;89.00;;;;;;5031063;28;20021;-87
2021/10/01 01:23:02;;;;;;;4.88;1.15;;;13.30;89.00;;;;;;5060333;28;20041;-87
2021/10/01 01:25:49;;;;;;;7.35;1.20;;;13.30;89.00;;;;;;5028387;28;20091;-87
2021/10/01 01:28:26;;;;;;;6.93;1.20;;;13.20;89.50;;;;;;5019702;28;20486;-88
2021/10/01 01:30:58;;;;;;;6.22;1.40;;;13.20;88.50;;;;;;5033162;28;20028;-86
2021/10/01 01:33:26;;;;;;;3.78;1.00;;;13.20;88.80;;;;;;5019329;28;20026;-87
2021/10/01 01:35:56;;;;;;;5.05;1.60;;;13.20;88.90;;;;;;5016342;28;20470;-87
2021/10/01 01:38:32;;;;;;;5.87;1.20;;;13.10;91.40;;;;;;5037658;28;20013;-86
2021/10/01 01:41:02;;;;;;;4.53;1.08;;;13.00;90.30;;;;;;5044413;28;20021;-87
2021/10/01 01:43:29;;;;;;;4.97;1.33;;;13.10;90.10;;;;;;5035801;28;20029;-87
2021/10/01 01:45:56;;;;;;;7.32;1.30;;;13.10;89.90;;;;;;5019804;28;20030;-87
2021/10/01 01:48:23;;;;;;;5.70;1.10;;;13.10;90.00;;;;;;5036130;28;20025;-87
2021/10/01 01:50:49;;;;;;;6.30;1.35;;;13.10;89.80;;;;;;5046280;28;20026;-87
2021/10/01 01:53:17;;;;;;;5.45;1.13;;;13.10;89.30;;;;;;5035359;28;20014;-90
2021/10/01 01:55:44;;;;;;;4.63;0.98;;;13.10;89.50;;;;;;5051706;28;20022;-89
2021/10/01 01:58:10;;;;;;;5.43;1.30;;;13.10;89.30;;;;;;5033018;28;20022;-87
2021/10/01 02:00:38;;;;;;;6.25;1.27;;;13.10;89.90;;;;;;5047157;28;20028;-88
2021/10/01 02:03:05;;;;;;;4.60;1.10;;;13.10;89.20;;;;;;5047126;28;20035;-87
2021/10/01 02:05:32;;;;;;;4.03;1.35;;;13.10;89.50;;;;;;5027364;28;20034;-88
2021/10/01 02:08:00;;;;;;;3.83;1.15;;;13.10;89.30;;;;;;5020537;28;20499;-93
2021/10/01 02:10:27;;;;;;;5.68;1.27;;;13.10;89.60;;;;;;5055447;28;20106;-86
2021/10/01 02:12:59;;;;;;;4.72;1.20;;;13.10;89.80;;;;;;5010522;28;20033;-87
2021/10/01 02:15:28;;;;;;;7.75;1.05;;;13.10;89.60;;;;;;5030771;28;20028;-87
2021/10/01 02:17:58;;;;;;;3.50;0.90;;;13.10;89.30;;;;;;5046557;28;20021;-86
2021/10/01 02:20:26;;;;;;;2.20;0.90;;;13.10;89.40;;;;;;5036390;28;20029;-86
2021/10/01 02:22:52;;;;;;;5.75;1.20;;;13.20;89.90;;;;;;5015361;28;20053;-87
2021/10/01 02:28:06;;;;;;;6.00;1.02;;;13.20;89.30;;;;;;4994279;28;20122;-87
2021/10/01 02:30:35;;;;;;;3.17;0.93;;;13.20;89.70;;;;;;5026097;28;20022;-87
2021/10/01 02:33:26;;;;;;;6.57;1.40;;;13.10;89.00;;;;;;5037940;28;20083;-86
2021/10/01 02:35:52;;;;;;;3.88;1.00;;;13.20;89.20;;;;;;5036758;28;20029;-89
2021/10/01 02:38:18;;;;;;;4.57;1.20;;;13.20;89.70;;;;;;5013305;28;20026;-86
2021/10/01 02:40:44;;;;;;;5.10;1.30;;;13.20;89.00;;;;;;5011154;28;20038;-86
2021/10/01 02:43:09;;;;;;;4.75;1.13;;;13.20;89.30;;;;;;5015701;28;20395;-87
2021/10/01 02:45:35;;;;;;;3.08;1.00;;;13.20;89.50;;;;;;5009760;28;20029;-87
2021/10/01 02:48:01;;;;;;;5.03;1.30;;;13.20;89.10;;;;;;4981989;28;20026;-91
2021/10/01 02:50:27;;;;;;;4.25;1.10;;;13.20;89.00;;;;;;5031025;28;20017;-86
2021/10/01 02:53:26;;;;;;;6.65;1.30;;;13.20;88.60;;;;;;4994872;28;20057;-86
2021/10/01 02:55:58;;;;;;;3.17;0.80;;;13.20;89.10;;;;;;5003603;28;20042;-87
2021/10/01 02:58:33;;;;;;;3.13;1.10;;;13.20;88.80;;;;;;5030582;28;20109;-87
2021/10/01 03:01:00;;;;;;;6.82;1.30;;;13.20;88.60;;;;;;5014319;28;20483;-86
2021/10/01 03:03:31;;;;;;;4.15;1.02;;;13.20;88.70;;;;;;5029696;28;20060;-86
2021/10/01 03:05:59;;;;;;;5.60;1.50;;;13.20;88.70;;;;;;5042578;28;20041;-87
2021/10/01 03:08:28;;;;;;;4.93;1.55;;;13.30;88.80;;;;;;5030022;28;20531;-87
2021/10/01 03:10:55;;;;;;;3.80;1.10;;;13.20;88.50;;;;;;5014958;28;20033;-87
2021/10/01 03:13:23;;;;;;;5.53;0.98;;;13.20;88.30;;;;;;5010024;28;20027;-86
2021/10/01 03:15:50;;;;;;;7.38;1.52;;;13.30;88.50;;;;;;5002873;28;20033;-87
2021/10/01 03:18:17;;;;;;;6.10;1.20;;;13.20;88.40;;;;;;5011784;28;20026;-86
2021/10/01 03:20:43;;;;;;;4.22;1.30;;;13.30;88.50;;;;;;5012889;28;20098;-88
2021/10/01 03:23:11;;;;;;;6.25;1.80;;;13.30;88.30;;;;;;4996908;28;20157;-86
2021/10/01 03:25:38;;;;;;;4.47;1.40;;;13.30;88.20;;;;;;4999687;28;20065;-87
2021/10/01 03:28:05;;;;;;;4.35;1.10;;;13.30;88.10;;;;;;5007218;28;20034;-87
2021/10/01 03:30:31;;;;;;;4.03;1.27;;;13.30;87.80;;;;;;4977641;28;20030;-86
2021/10/01 03:32:56;;;;;;;4.25;1.33;;;13.30;87.60;;;;;;4977662;28;20499;-86
2021/10/01 03:35:22;;;;;;;7.38;1.42;;;13.30;87.80;;;;;;5005084;28;20033;-87
2021/10/01 03:37:48;;;;;;;3.92;1.48;;;13.30;87.20;;;;;;4977824;28;20027;-87
2021/10/01 03:40:14;;;;;;;6.68;1.48;;;13.30;87.50;;;;;;5007139;28;20505;-87
2021/10/01 03:42:41;;;;;;;5.35;1.20;;;13.30;87.60;;;;;;5006075;28;20076;-87
2021/10/01 03:45:08;;;;;;;3.78;0.95;;;13.30;87.90;;;;;;5014442;28;20029;-91
2021/10/01 03:47:34;;;;;;;4.10;1.05;;;13.30;87.60;;;;;;5019525;28;20030;-89
2021/10/01 03:50:01;;;;;;;3.22;1.10;;;13.30;87.20;;;;;;5026889;28;20026;-87
2021/10/01 03:52:27;;;;;;;2.65;1.10;;;13.30;86.90;;;;;;5020949;28;20471;-86
2021/10/01 03:54:53;;;;;;;4.63;1.65;;;13.40;87.20;;;;;;4974990;28;20070;-88
2021/10/01 03:57:19;;;;;;;4.85;1.58;;;13.40;87.20;;;;;;4984476;28;20054;-87
2021/10/01 03:59:46;;;;;;;4.18;1.15;;;13.40;86.80;;;;;;5001593;28;20101;-87
2021/10/01 04:02:11;;;;;;;3.60;1.10;;;13.40;86.90;;;;;;5003870;28;20090;-87
2021/10/01 04:04:37;;;;;;;5.97;1.20;;;13.40;87.20;;;;;;4965367;28;20035;-84
2021/10/01 04:07:03;;;;;;;3.83;1.08;;;13.40;86.80;;;;;;5004444;28;20490;-83
2021/10/01 04:09:29;;;;;;;4.78;1.15;;;13.40;87.00;;;;;;5001964;28;20124;-85
2021/10/01 04:11:56;;;;;;;5.15;0.95;;;13.30;87.30;;;;;;5029232;28;20501;-87
2021/10/01 04:14:25;;;;;;;6.43;1.48;;;13.30;87.20;;;;;;5013807;28;20025;-87
2021/10/01 04:16:51;;;;;;;5.38;1.23;;;13.30;87.50;;;;;;5014639;28;20084;-86
2021/10/01 04:19:17;;;;;;;5.88;1.55;;;13.20;87.70;;;;;;5012430;28;20022;-87
2021/10/01 04:21:44;;;;;;;6.45;0.90;;;13.20;87.90;;;;;;4989256;28;20137;-87
2021/10/01 04:24:10;;;;;;;5.03;1.00;;;13.10;88.00;;;;;;5043807;28;20039;-93
2021/10/01 04:26:36;;;;;;;4.45;1.10;;;13.10;88.20;;;;;;5004465;28;20021;-86
2021/10/01 04:29:02;;;;;;;4.10;1.20;;;13.10;88.20;;;;;;5018442;28;20030;-86
2021/10/01 04:31:28;;;;;;;4.28;0.90;;;13.00;88.20;;;;;;5023949;28;20057;-87
2021/10/01 04:33:55;;;;;;;2.75;1.25;;;13.00;88.20;;;;;;5011013;28;20091;-86
2021/10/01 04:36:22;;;;;;;3.78;0.98;;;12.90;88.10;;;;;;5007316;28;20040;-88
2021/10/01 04:38:49;;;;;;;4.45;1.13;;;13.00;88.20;;;;;;4983882;28;20513;-88
2021/10/01 04:41:15;;;;;;;5.38;1.48;;;12.90;88.10;;;;;;5034095;28;20025;-88
2021/10/01 04:43:40;;;;;;;5.15;1.00;;;12.90;88.20;;;;;;5013986;28;20029;-87
2021/10/01 04:46:07;;;;;;;3.17;1.23;;;12.90;88.40;;;;;;5003143;28;20022;-88
2021/10/01 04:48:33;;;;;;;5.03;1.10;;;12.90;88.40;;;;;;5033381;28;20034;-89
2021/10/01 04:50:58;;;;;;;5.88;1.75;;;12.90;88.40;;;;;;4982527;28;20025;-87
2021/10/01 04:53:24;;;;;;;8.30;1.63;;;12.90;88.30;;;;;;4998854;28;20549;-87
2021/10/01 04:55:50;;;;;;;5.00;1.02;;;12.80;88.20;;;;;;4999066;28;20426;-86
2021/10/01 04:58:15;;;;;;;2.80;1.20;;;12.80;88.20;;;;;;5014954;28;20030;-87
2021/10/01 05:00:41;;;;;;;3.83;1.05;;;12.80;88.20;;;;;;5007936;28;20034;-86
2021/10/01 05:03:07;;;;;;;5.15;1.30;;;12.80;88.10;;;;;;5028547;28;20033;-86
2021/10/01 05:05:33;;;;;;;3.50;1.02;;;12.80;88.40;;;;;;5032817;28;20437;-87
2021/10/01 05:07:58;;;;;;;4.55;1.08;;;12.80;88.50;;;;;;5003928;28;20026;-87
2021/10/01 05:10:24;;;;;;;5.03;0.95;;;12.80;88.20;;;;;;5013197;28;20034;-86
2021/10/01 05:12:50;;;;;;;5.75;1.98;;;12.80;88.10;;;;;;5013262;28;20076;-87
2021/10/01 05:15:18;;;;;;;4.53;1.70;;;12.80;88.30;;;;;;5016882;28;20029;-87
2021/10/01 05:17:44;;;;;;;7.30;1.48;;;12.80;88.20;;;;;;5011836;28;20037;-86
2021/10/01 05:20:12;;;;;;;5.75;1.25;;;12.80;88.10;;;;;;5014267;28;20026;-87
2021/10/01 05:22:37;;;;;;;3.15;1.17;;;12.80;88.10;;;;;;5011314;28;20539;-87
2021/10/01 05:25:05;;;;;;;5.65;1.70;;;12.80;88.20;;;;;;5023560;28;20030;-86
2021/10/01 05:27:31;;;;;;;3.47;0.90;;;12.80;88.10;;;;;;5037851;28;20022;-86
2021/10/01 05:29:56;;;;;;;2.45;1.30;;;12.80;88.40;;;;;;5027210;23;20049;-88
2021/10/01 05:32:22;;;;;;;3.47;1.10;;;12.80;88.40;;;;;;4979366;28;20539;-88
2021/10/01 05:34:48;;;;;;;3.50;1.08;;;12.80;88.30;;;;;;4996648;28;20395;-88
2021/10/01 05:37:14;;;;;;;3.33;1.08;;;12.80;88.50;;;;;;4979739;28;20080;-89
2021/10/01 05:39:40;;;;;;;2.95;1.10;;;12.80;88.40;;;;;;5008306;28;20064;-88
2021/10/01 05:42:06;;;;;;;7.70;1.35;;;12.80;88.20;;;;;;4994584;28;20037;-88
2021/10/01 05:44:33;;;;;;;8.77;2.22;;;12.80;87.90;;;;;;5004951;28;20772;-88
2021/10/01 05:47:02;;;;;;;4.03;1.00;;;12.80;88.30;;;;;;5016778;28;20026;-88
2021/10/01 05:49:51;;;;;;;3.95;1.10;;;12.80;88.20;;;;;;5003901;28;20029;-88
2021/10/01 05:52:37;;;;;;;3.67;1.33;;;12.80;87.90;;;;;;5009140;28;20080;-87
2021/10/01 05:55:03;;;;;;;5.05;1.55;;;12.80;87.50;;;;;;4993785;28;20182;-88
2021/10/01 05:57:29;;;;;;;3.20;1.08;;;12.80;87.70;;;;;;4993364;28;20549;-88
2021/10/01 05:59:57;;;;;;;6.15;1.30;;;12.80;87.60;;;;;;5002748;28;20030;-89
2021/10/01 06:02:23;;;;;;;6.65;1.00;;;12.80;87.60;;;;;;5009377;28;20089;-89
2021/10/01 06:04:55;;;;;;;4.30;1.00;;;12.80;87.80;;;;;;4997568;28;20462;-88
2021/10/01 06:07:22;;;;;;;4.65;0.88;;;12.80;87.90;;;;;;5003063;28;20113;-89
2021/10/01 06:09:50;;;;;;;5.43;1.20;;;12.90;87.70;;;;;;5016593;28;20022;-88
2021/10/01 06:12:17;;;;;;;7.75;1.55;;;12.90;87.40;;;;;;5016839;28;20014;-89
2021/10/01 06:14:45;;;;;;;7.20;1.83;;;12.90;87.80;;;;;;4982830;28;20030;-88
2021/10/01 06:17:18;;;;;;;2.83;0.90;;;12.90;87.30;;;;;;4998979;28;20045;-88
2021/10/01 06:19:44;;;;;;;5.10;1.27;;;12.90;87.60;;;;;;4989022;28;20029;-84
2021/10/01 06:22:14;;;;;;;4.05;1.15;;;12.90;87.90;;;;;;5046674;23;20382;-84
2021/10/01 06:24:57;;;;;;;5.65;1.10;;;12.90;88.00;;;;;;5013997;28;20119;-84
2021/10/01 06:27:29;;;;;;;5.35;1.30;;;12.90;87.90;;;;;;5010880;28;20079;-84
2021/10/01 06:29:58;;;;;;;2.55;1.00;;;12.90;87.70;;;;;;4981310;28;20559;-84
2021/10/01 06:32:38;;;;;;;4.63;1.30;;;12.90;88.10;;;;;;5026633;28;20022;-88
2021/10/01 06:35:30;;;;;;;3.05;1.10;;;13.00;87.80;;;;;;5007485;28;20041;-88
2021/10/01 06:38:11;;;;;;;7.32;1.73;;;13.00;87.90;;;;;;5000220;28;20145;-88
2021/10/01 06:40:41;;;;;;;4.88;1.10;;;13.00;87.50;;;;;;4997816;28;20045;-89
2021/10/01 06:43:16;;;;;;;4.85;1.05;;;13.00;88.00;;;;;;5011490;28;20030;-88
2021/10/01 06:45:51;;;;;;;4.95;1.02;;;13.00;87.70;;;;;;4985219;28;20022;-88
2021/10/01 08:20:17;;;;;;;2.85;1.42;;;13.90;86.30;;;;;;4988738;28;20053;-86
2021/10/01 08:22:43;;;;;;;4.47;1.20;;;13.90;87.20;;;;;;5008778;28;20041;-85
2021/10/01 08:25:16;;;;;;;4.30;1.40;;;13.90;87.80;;;;;;5000074;28;20036;-84
2021/10/01 08:27:42;;;;;;;3.97;1.30;;;14.00;87.40;;;;;;4996352;28;20029;-86
2021/10/01 08:30:09;;;;;;;6.25;1.42;;;14.00;88.10;;;;;;4995815;28;20022;-85
2021/10/01 08:32:36;;;;;;;4.63;1.20;;;14.00;87.40;;;;;;5016423;28;20017;-85
2021/10/01 08:35:03;;;;;;;4.00;1.05;;;14.10;87.80;;;;;;4989087;28;20065;-85
2021/10/01 08:37:29;;;;;;;4.70;1.27;;;14.10;87.00;;;;;;5018634;28;20487;-84
2021/10/01 08:39:57;;;;;;;5.90;1.58;;;14.20;88.10;;;;;;4995473;28;20029;-85
2021/10/01 08:42:23;;;;;;;8.95;1.50;;;14.20;89.70;;;;;;5011445;28;20026;-83
2021/10/01 08:44:50;;;;;;;5.10;1.10;;;14.20;90.00;;;;;;4988249;28;20092;-84
2021/10/01 08:47:17;;;;;;;5.90;1.83;;;14.10;90.30;;;;;;4998342;28;20021;-84
2021/10/01 08:49:48;;;;;;;2.42;1.15;;;14.10;91.00;;;;;;4994205;28;20030;-88
2021/10/01 08:52:14;;;;;;;4.90;1.08;;;14.10;91.10;;;;;;4997592;28;20025;-84
2021/10/01 08:54:41;;;;;;;7.63;1.08;;;14.00;91.20;;;;;;5011330;28;20030;-85
2021/10/01 08:57:10;;;;;;;6.70;1.33;;;14.00;91.40;;;;;;4995743;28;20042;-86
2021/10/01 08:59:36;;;;;;;6.70;1.58;;;14.00;91.20;;;;;;4995628;28;20022;-87
2021/10/01 09:02:02;;;;;;;3.45;1.10;;;14.00;91.30;;;;;;5011985;28;20037;-87
2021/10/01 09:04:28;;;;;;;8.80;2.10;;;14.10;91.60;;;;;;5025431;28;20022;-86
2021/10/01 09:06:56;;;;;;;4.93;1.30;;;14.10;90.90;;;;;;4995883;28;20146;-86
2021/10/01 09:09:40;;;;;;;6.55;1.20;;;14.10;91.20;;;;;;4997715;28;20048;-86
2021/10/01 09:12:08;;;;;;;4.18;1.10;;;14.10;91.40;;;;;;5007177;28;20033;-85
2021/10/01 09:15:04;;;;;;;3.88;1.20;;;14.20;91.10;;;;;;4995058;28;20399;-84
2021/10/01 09:17:34;;;;;;;5.13;1.35;;;14.20;91.40;;;;;;5005944;28;20132;-85
2021/10/01 09:20:02;;;;;;;4.18;1.17;;;14.30;91.30;;;;;;4995476;28;20509;-86
2021/10/01 09:22:37;;;;;;;5.47;1.38;;;14.30;90.50;;;;;;5011455;28;20088;-86
2021/10/01 09:25:35;;;;;;;5.18;1.38;;;14.30;90.50;;;;;;5011504;28;20031;-85
2021/10/01 09:28:12;;;;;;;8.45;1.58;;;14.40;91.10;;;;;;4968863;28;20487;-86
2021/10/01 09:31:00;;;;;;;6.18;1.60;;;14.40;91.30;;;;;;4999127;28;20083;-86
2021/10/01 09:33:29;;;;;;;5.68;1.40;;;14.40;91.80;;;;;;5005707;28;20061;-86
2021/10/01 09:36:08;;;;;;;4.53;1.23;;;14.40;92.00;;;;;;5011457;28;20077;-86
2021/10/01 09:38:37;;;;;;;4.35;1.38;;;14.30;92.30;;;;;;5000269;28;20503;-86
2021/10/01 09:41:25;;;;;;;6.78;1.38;;;14.20;92.80;;;;;;5015429;28;20034;-86
2021/10/01 09:44:19;;;;;;;5.10;1.50;;;14.20;92.80;;;;;;5002712;28;20022;-88
2021/10/01 09:46:48;;;;;;;6.50;1.30;;;14.20;93.20;;;;;;4997085;28;20410;-85
2021/10/01 09:49:16;;;;;;;4.65;1.20;;;14.10;93.30;;;;;;5019689;28;20037;-84
2021/10/01 09:51:53;;;;;;;7.45;1.40;;;14.10;93.30;;;;;;5014762;28;20026;-85
2021/10/01 09:54:22;;;;;;;3.63;1.38;;;14.20;93.70;;;;;;5011349;28;20132;-84
2021/10/01 09:56:49;;;;;;;7.53;1.40;;;14.20;93.50;;;;;;5014771;28;20030;-85
2021/10/01 09:59:24;;;;;;;5.65;1.50;;;14.20;93.50;;;;;;4998991;28;20022;-85
2021/10/01 10:02:13;;;;;;;3.55;1.33;;;14.20;93.50;;;;;;4998462;28;20017;-87
2021/10/01 10:04:55;;;;;;;5.93;1.48;;;14.30;93.50;;;;;;4998847;28;20107;-87
2021/10/01 10:07:26;;;;;;;4.07;1.13;;;14.30;93.50;;;;;;5001493;28;20072;-86
2021/10/01 10:09:57;;;;;;;5.20;1.30;;;14.40;93.60;;;;;;5015790;28;20029;-87
2021/10/01 10:12:26;;;;;;;7.82;1.30;;;14.40;93.80;;;;;;5023271;28;20030;-86
2021/10/01 10:14:53;;;;;;;6.55;1.92;;;14.40;93.20;;;;;;5014414;28;20053;-87
2021/10/01 10:17:26;;;;;;;6.38;1.80;;;14.50;92.90;;;;;;5014349;28;20073;-87
2021/10/01 10:20:00;;;;;;;5.30;1.63;;;14.60;92.60;;;;;;4990802;28;20037;-87
2021/10/01 10:22:28;;;;;;;4.85;1.60;;;14.60;92.40;;;;;;5020687;28;20040;-85
2021/10/01 10:24:57;;;;;;;6.35;1.20;;;14.70;91.90;;;;;;4997767;28;20483;-86
2021/10/01 10:27:25;;;;;;;3.60;1.27;;;14.70;91.70;;;;;;5005803;28;20029;-88
2021/10/01 10:29:52;;;;;;;3.65;1.27;;;14.80;91.80;;;;;;4999231;28;20016;-89
2021/10/01 10:32:19;;;;;;;2.95;1.20;;;14.90;90.80;;;;;;4999422;28;20096;-89
2021/10/01 10:34:50;;;;;;;7.53;1.75;;;15.00;91.20;;;;;;5001056;28;20487;-91
2021/10/01 10:37:16;;;;;;;7.38;1.63;;;15.00;91.10;;;;;;5014363;28;20034;-89
2021/10/01 10:39:44;;;;;;;4.18;1.20;;;15.20;90.60;;;;;;5029294;28;20025;-90
2021/10/01 10:42:16;;;;;;;4.38;1.23;;;15.20;90.10;;;;;;5017371;28;20030;-89
2021/10/01 10:44:44;;;;;;;2.67;0.93;;;15.30;90.30;;;;;;5017216;28;20025;-89
2021/10/01 10:47:11;;;;;;;4.25;1.17;;;15.40;88.60;;;;;;4999227;28;20022;-89
2021/10/01 10:49:39;;;;;;;5.43;1.40;;;15.40;89.60;;;;;;4978999;28;20053;-89
2021/10/01 10:52:12;;;;;;;5.57;1.20;;;15.50;87.50;;;;;;4998680;28;20030;-90
2021/10/01 10:55:02;;;;;;;6.63;1.30;;;15.60;87.90;;;;;;5000266;28;20044;-91
2021/10/01 10:57:30;;;;;;;4.97;1.20;;;15.60;86.90;;;;;;5002402;28;20026;-90
2021/10/01 11:00:03;;;;;;;6.55;1.75;;;15.70;88.10;;;;;;5018456;28;20431;-90
2021/10/01 11:02:41;;;;;;;3.92;1.48;;;15.70;86.80;;;;;;5012827;28;20356;-89
2021/10/01 11:05:26;;;;;;;4.15;1.38;;;15.80;85.90;;;;;;5022969;28;20100;-88
2021/10/01 11:07:53;;;;;;;4.00;1.13;;;15.80;86.90;;;;;;5031043;28;20021;-87
2021/10/01 11:10:37;;;;;;;5.57;1.40;;;15.90;85.60;;;;;;5014744;28;20042;-89
2021/10/01 11:13:18;;;;;;;5.07;1.20;;;16.00;86.90;;;;;;5013583;28;20387;-89
2021/10/01 11:16:09;;;;;;;5.90;1.27;;;16.00;86.20;;;;;;5011572;28;20022;-89
2021/10/01 11:18:35;;;;;;;5.65;1.40;;;16.10;87.00;;;;;;4978996;28;20033;-89
2021/10/01 11:21:21;;;;;;;4.50;1.52;;;16.10;86.60;;;;;;5023165;28;20025;-88
2021/10/01 11:24:12;;;;;;;4.10;1.23;;;16.20;84.80;;;;;;4989498;28;20184;-87
2021/10/01 11:26:54;;;;;;;6.25;1.80;;;16.20;85.60;;;;;;5028171;28;20024;-88
2021/10/01 11:29:33;;;;;;;4.90;1.27;;;16.20;85.80;;;;;;5026842;28;20082;-89
2021/10/01 11:32:02;;;;;;;6.53;1.58;;;16.30;85.80;;;;;;5007002;28;20083;-90
2021/10/01 11:34:42;;;;;;;3.20;1.20;;;16.30;86.30;;;;;;5017743;28;20056;-89
2021/10/01 11:37:22;;;;;;;4.10;1.20;;;16.40;87.50;;;;;;5027835;28;20022;-89
2021/10/01 11:39:47;;;;;;;4.47;1.15;;;16.50;86.70;;;;;;5014295;28;20383;-89
2021/10/01 11:42:25;;;;;;;5.57;1.17;;;16.60;86.10;;;;;;5020740;28;20475;-88
2021/10/01 11:44:53;;;;;;;4.45;1.13;;;16.60;84.20;;;;;;5034389;28;20037;-89
2021/10/01 11:47:19;;;;;;;2.17;0.85;;;16.60;85.60;;;;;;5012281;28;20018;-89
2021/10/01 11:49:57;;;;;;;6.75;1.63;;;16.60;86.10;;;;;;5014029;28;20033;-89
2021/10/01 11:52:25;;;;;;;5.10;1.23;;;16.60;87.50;;;;;;5018509;28;20030;-88
2021/10/01 11:54:59;;;;;;;4.57;1.50;;;16.60;87.80;;;;;;5022688;28;20391;-89
2021/10/01 11:57:39;;;;;;;4.00;1.17;;;16.50;87.30;;;;;;5018711;28;20025;-90
2021/10/01 12:00:11;;;;;;;6.70;1.40;;;16.40;86.80;;;;;;5020950;28;20037;-89
2021/10/01 12:02:44;;;;;;;4.82;1.73;;;16.40;86.80;;;;;;5014185;28;20328;-88
2021/10/01 12:05:33;;;;;;;5.70;1.48;;;16.30;88.00;;;;;;5015112;28;20101;-88
2021/10/01 12:08:07;;;;;;;5.85;1.38;;;16.30;88.80;;;;;;4998182;28;20017;-89
2021/10/01 12:10:41;;;;;;;6.00;1.67;;;16.30;87.90;;;;;;5017729;28;20021;-83
2021/10/01 12:13:17;;;;;;;3.58;1.55;;;16.30;89.10;;;;;;5000182;28;20783;-84
2021/10/01 12:15:44;;;;;;;7.95;1.40;;;16.30;88.90;;;;;;5020652;28;20067;-84
2021/10/01 12:18:44;;;;;;;3.97;1.52;;;16.30;89.30;;;;;;5024094;28;20025;-84
2021/10/01 12:21:17;;;;;;;4.72;0.80;;;16.30;89.00;;;;;;5012060;28;20048;-84
2021/10/01 12:23:49;;;;;;;2.92;1.15;;;16.40;89.60;;;;;;5016112;28;20483;-84
2021/10/01 12:26:25;;;;;;;5.80;1.33;;;16.40;89.20;;;;;;5015888;28;20480;-84
2021/10/01 12:29:12;;;;;;;5.57;1.42;;;16.50;89.00;;;;;;5025133;28;20024;-83
2021/10/01 12:31:54;;;;;;;3.17;1.00;;;16.50;88.20;;;;;;5015222;28;20379;-84
2021/10/01 12:34:21;;;;;;;3.83;1.15;;;16.50;86.60;;;;;;5023934;28;20036;-84
2021/10/01 12:36:54;;;;;;;3.20;1.00;;;16.50;85.40;;;;;;5017027;28;20022;-84
2021/10/01 12:39:25;;;;;;;4.65;1.23;;;16.60;84.30;;;;;;4996784;28;20046;-88
2021/10/01 12:42:14;;;;;;;5.82;1.02;;;16.60;85.00;;;;;;5012948;28;20025;-88
2021/10/01 12:44:43;;;;;;;4.18;1.10;;;16.70;83.10;;;;;;5004750;28;20383;-88
2021/10/01 12:47:17;;;;;;;6.10;1.00;;;16.70;81.70;;;;;;5026751;28;20064;-88
2021/10/01 12:49:56;;;;;;;3.33;1.25;;;16.70;82.20;;;;;;5013990;28;20025;-88
2021/10/01 12:52:32;;;;;;;3.75;1.05;;;16.70;82.00;;;;;;5014463;28;20097;-88
2021/10/01 12:55:04;;;;;;;5.45;1.20;;;16.70;82.70;;;;;;4996880;28;20072;-89
2021/10/01 12:57:29;;;;;;;5.70;1.73;;;16.80;82.70;;;;;;5013253;28;20017;-89
2021/10/01 12:59:58;;;;;;;5.57;1.25;;;16.80;83.60;;;;;;5013638;28;20425;-88
2021/10/01 13:02:38;;;;;;;4.03;1.20;;;16.90;80.10;;;;;;5013209;28;20113;-87
2021/10/01 13:05:17;;;;;;;4.25;0.90;;;16.90;80.60;;;;;;5015071;28;20388;-87
2021/10/01 13:07:48;;;;;;;6.47;1.10;;;17.00;80.40;;;;;;5012822;28;20010;-87
2021/10/01 13:10:25;;;;;;;3.95;1.10;;;17.00;80.90;;;;;;5010083;28;20029;-88
2021/10/01 13:12:58;;;;;;;4.88;1.75;;;17.00;79.50;;;;;;5013594;28;20049;-88
2021/10/01 13:15:40;;;;;;;4.43;1.52;;;17.10;79.30;;;;;;5016483;28;20021;-88
2021/10/01 13:18:27;;;;;;;6.00;1.23;;;17.20;80.10;;;;;;4999180;28;20033;-89
2021/10/01 13:23:58;;;;;;;4.03;0.95;;;17.30;78.40;;;;;;4978381;28;20054;-89
2021/10/01 13:26:33;;;;;;;7.80;1.55;;;17.30;78.10;;;;;;4962559;28;20029;-84
2021/10/01 13:29:05;;;;;;;3.25;1.20;;;17.30;78.20;;;;;;4961940;28;20104;-85
2021/10/01 13:31:38;;;;;;;4.43;1.48;;;17.30;79.10;;;;;;4961652;28;20058;-84
2021/10/01 13:34:05;;;;;;;5.97;1.17;;;17.40;79.00;;;;;;4971594;28;20023;-83
2021/10/01 13:36:32;;;;;;;4.68;1.38;;;17.40;78.70;;;;;;4979009;28;20027;-83
2021/10/01 13:38:58;;;;;;;6.47;1.33;;;17.40;78.80;;;;;;4961513;28;20567;-84
2021/10/01 13:41:24;;;;;;;5.72;1.38;;;17.40;79.00;;;;;;4961518;28;20100;-84
2021/10/01 13:43:50;;;;;;;4.43;1.20;;;17.40;78.30;;;;;;4942894;28;20031;-83
2021/10/01 13:46:17;;;;;;;4.63;1.00;;;17.40;78.60;;;;;;4945776;28;21257;-83
2021/10/01 13:48:43;;;;;;;3.95;1.33;;;17.50;78.00;;;;;;4961486;28;20497;-83
2021/10/01 13:51:09;;;;;;;7.43;1.50;;;17.50;78.80;;;;;;4945368;28;20038;-83
2021/10/01 13:53:35;;;;;;;5.38;1.38;;;17.50;77.40;;;;;;4945591;28;20034;-83
2021/10/01 13:56:00;;;;;;;2.88;0.75;;;17.50;77.10;;;;;;4961536;28;20038;-83
2021/10/01 13:58:26;;;;;;;2.90;1.00;;;17.60;76.80;;;;;;4958559;29;20028;-83
2021/10/01 14:00:54;;;;;;;4.15;1.05;;;17.60;77.50;;;;;;4955337;28;20500;-84
2021/10/01 14:03:21;;;;;;;3.85;1.50;;;17.60;77.40;;;;;;4927088;29;20035;-84
2021/10/01 14:05:50;;;;;;;3.83;1.15;;;17.60;77.90;;;;;;4970037;28;20495;-84
2021/10/01 14:08:16;;;;;;;4.28;1.40;;;17.70;77.20;;;;;;4964848;28;20431;-88
2021/10/01 14:10:43;;;;;;;2.35;1.10;;;17.70;76.60;;;;;;4980699;28;20029;-88
2021/10/01 14:13:11;;;;;;;3.85;0.90;;;17.70;77.00;;;;;;4962067;28;20029;-88
2021/10/01 14:15:38;;;;;;;5.43;1.52;;;17.70;77.40;;;;;;4960920;28;20376;-88
2021/10/01 14:18:04;;;;;;;6.28;1.77;;;17.70;76.90;;;;;;4929481;28;20077;-89
2021/10/01 14:20:31;;;;;;;8.38;1.20;;;17.70;75.50;;;;;;4962624;28;20046;-87
2021/10/01 14:22:59;;;;;;;6.05;1.25;;;17.70;76.30;;;;;;4961570;28;20054;-88
2021/10/01 14:25:26;;;;;;;5.07;1.10;;;17.70;76.00;;;;;;4943694;28;20481;-84
2021/10/01 14:27:56;;;;;;;5.15;1.10;;;17.60;75.40;;;;;;4960858;28;20030;-83
2021/10/01 14:30:24;;;;;;;2.53;1.20;;;17.60;76.30;;;;;;4973890;28;20038;-82
2021/10/01 14:32:52;;;;;;;5.50;1.20;;;17.60;75.90;;;;;;4954967;28;20054;-83
2021/10/01 14:35:18;;;;;;;4.28;1.50;;;17.70;75.50;;;;;;4967641;28;20081;-84
2021/10/01 14:37:44;;;;;;;5.32;1.20;;;17.70;76.50;;;;;;4958677;28;20027;-83
2021/10/01 14:40:10;;;;;;;4.30;1.13;;;17.70;77.20;;;;;;4938753;29;20032;-83
2021/10/01 14:42:36;;;;;;;8.95;1.30;;;17.70;76.60;;;;;;4970386;28;20023;-83
2021/10/01 14:45:04;;;;;;;4.18;1.20;;;17.80;76.70;;;;;;4975689;28;20037;-83